Time;durP1;ratioP1;P1;durP2;ratioP2;P2;SDS_P1;SDS_P2;PMS_P1;PMS_P2;Temp;Humidity;BMP_temperature;BMP_pressure;BME280_temperature;BME280_humidity;BME280_pressure;Samples;Min_cycle;Max_cycle;Signal;HPM_P1;HPM_P2
2023/10/11 00:00:57;;;;;;;7.75;3.25;;;5.00;99.90;;;;;;5063875;28;20680;-87
2023/10/11 00:05:53;;;;;;;7.13;4.10;;;5.10;99.90;;;;;;5070646;28;20192;-86
2023/10/11 00:08:29;;;;;;;6.68;3.78;;;5.10;99.90;;;;;;5066281;28;20925;-87
2023/10/11 00:10:59;;;;;;;7.53;4.40;;;5.10;99.90;;;;;;5052272;28;20200;-88
2023/10/11 00:13:40;;;;;;;7.45;3.95;;;5.10;99.90;;;;;;5059546;28;20185;-89
2023/10/11 00:16:10;;;;;;;9.40;3.97;;;5.10;99.90;;;;;;5034626;28;20181;-87
2023/10/11 00:18:41;;;;;;;8.70;4.22;;;5.10;99.90;;;;;;5067501;28;20253;-87
2023/10/11 00:21:12;;;;;;;7.13;3.83;;;5.20;99.90;;;;;;5065126;28;20556;-88
2023/10/11 00:23:46;;;;;;;6.93;3.88;;;5.20;99.90;;;;;;5056012;28;20205;-86
2023/10/11 00:26:14;;;;;;;9.70;4.55;;;5.20;99.90;;;;;;5061859;28;20189;-86
2023/10/11 00:28:51;;;;;;;10.15;5.40;;;5.20;99.90;;;;;;5068506;28;20204;-87
2023/10/11 00:31:19;;;;;;;8.23;4.88;;;5.30;99.90;;;;;;5064268;28;20192;-87
2023/10/11 00:33:47;;;;;;;9.07;4.50;;;5.20;99.90;;;;;;5060002;28;20651;-87
2023/10/11 00:36:16;;;;;;;9.90;4.90;;;5.30;99.90;;;;;;5060991;28;20188;-87
2023/10/11 00:38:48;;;;;;;10.80;5.13;;;5.40;99.90;;;;;;5062802;28;20203;-88
2023/10/11 00:41:19;;;;;;;8.13;4.90;;;5.40;99.90;;;;;;5055098;28;20236;-88
2023/10/11 00:43:52;;;;;;;9.32;4.93;;;5.40;99.90;;;;;;5059991;28;20675;-88
2023/10/11 00:46:27;;;;;;;10.57;5.43;;;5.40;99.90;;;;;;5058843;28;20185;-88
2023/10/11 00:49:34;;;;;;;13.48;6.05;;;5.40;99.90;;;;;;5060321;28;20214;-89
2023/10/11 00:51:50;;;;;;;11.98;5.95;;;5.40;99.90;;;;;;5059806;28;20193;-86
2023/10/11 00:54:18;;;;;;;11.52;5.68;;;5.50;99.90;;;;;;5057854;28;20189;-87
2023/10/11 00:56:49;;;;;;;9.77;5.88;;;5.50;99.90;;;;;;5056418;28;20180;-87
2023/10/11 00:59:21;;;;;;;10.23;5.82;;;5.50;99.90;;;;;;5070127;28;20264;-86
2023/10/11 01:01:51;;;;;;;9.07;5.60;;;5.60;99.90;;;;;;5058012;28;20370;-89
2023/10/11 01:04:19;;;;;;;10.93;5.30;;;5.50;99.90;;;;;;5041796;28;20299;-88
2023/10/11 01:06:49;;;;;;;12.18;6.28;;;5.60;99.90;;;;;;5065313;28;20713;-88
2023/10/11 01:09:21;;;;;;;9.60;5.30;;;5.60;99.90;;;;;;5051154;28;22124;-87
2023/10/11 01:11:49;;;;;;;11.35;6.32;;;5.50;99.90;;;;;;5069821;28;20211;-87
2023/10/11 01:14:17;;;;;;;10.30;5.75;;;5.60;99.90;;;;;;5068977;28;20199;-86
2023/10/11 01:16:44;;;;;;;11.75;5.50;;;5.60;99.90;;;;;;5067037;28;20228;-87
2023/10/11 01:19:15;;;;;;;12.82;7.13;;;5.60;99.90;;;;;;5055976;28;20199;-89
2023/10/11 01:21:52;;;;;;;9.68;6.25;;;5.60;99.90;;;;;;5047120;28;20192;-86
2023/10/11 01:24:20;;;;;;;16.55;6.20;;;5.70;99.90;;;;;;5061533;28;20199;-86
2023/10/11 01:26:48;;;;;;;11.73;6.70;;;5.70;99.90;;;;;;5044317;28;20190;-87
2023/10/11 01:29:17;;;;;;;10.95;6.05;;;5.60;99.90;;;;;;5055290;28;20178;-87
2023/10/11 01:31:44;;;;;;;11.05;6.15;;;5.70;99.90;;;;;;5059682;28;20217;-88
2023/10/11 01:34:14;;;;;;;11.52;6.20;;;5.60;99.90;;;;;;5051529;28;20247;-86
2023/10/11 01:36:46;;;;;;;12.55;7.25;;;5.70;99.90;;;;;;5066663;28;20192;-86
2023/10/11 01:39:14;;;;;;;14.68;7.05;;;5.70;99.90;;;;;;5051879;28;20204;-87
2023/10/11 01:41:42;;;;;;;11.35;7.47;;;5.70;99.90;;;;;;5052294;28;20228;-88
2023/10/11 01:44:11;;;;;;;11.98;7.35;;;5.80;99.90;;;;;;5049848;28;20211;-87
2023/10/11 01:46:40;;;;;;;12.50;6.85;;;5.80;99.90;;;;;;5040610;28;20188;-87
2023/10/11 01:49:10;;;;;;;12.80;6.90;;;5.80;99.90;;;;;;5041589;28;20599;-87
2023/10/11 01:51:39;;;;;;;11.05;7.35;;;5.70;99.90;;;;;;5061487;28;20184;-87
2023/10/11 01:54:09;;;;;;;12.75;7.18;;;5.80;99.90;;;;;;5061346;28;20178;-88
2023/10/11 01:56:38;;;;;;;14.63;7.85;;;5.80;99.90;;;;;;5065586;28;20242;-87
2023/10/11 01:59:07;;;;;;;12.32;7.55;;;5.80;99.90;;;;;;5059830;28;20199;-87
2023/10/11 02:01:41;;;;;;;18.25;9.05;;;5.80;99.90;;;;;;5052531;28;20272;-86
2023/10/11 02:04:17;;;;;;;12.82;7.95;;;5.80;99.90;;;;;;5068853;28;20203;-87
2023/10/11 02:06:49;;;;;;;12.55;7.72;;;5.80;99.90;;;;;;5042796;28;20655;-87
2023/10/11 02:09:21;;;;;;;15.63;9.45;;;5.80;99.90;;;;;;5058553;28;20205;-87
2023/10/11 02:11:53;;;;;;;10.50;7.07;;;5.80;99.90;;;;;;5058906;28;20264;-88
2023/10/11 02:14:22;;;;;;;14.23;8.18;;;5.90;99.90;;;;;;5056099;28;20216;-86
2023/10/11 02:16:53;;;;;;;13.88;7.30;;;5.90;99.90;;;;;;5044362;28;20197;-87
2023/10/11 02:19:23;;;;;;;12.27;7.13;;;5.90;99.90;;;;;;5071143;28;20189;-87
2023/10/11 02:21:53;;;;;;;12.43;7.32;;;5.90;99.90;;;;;;5068656;28;20254;-87
2023/10/11 02:24:25;;;;;;;14.40;7.82;;;5.90;99.90;;;;;;5061385;28;20196;-88
2023/10/11 02:26:54;;;;;;;12.27;7.45;;;5.90;99.90;;;;;;5046449;28;20189;-89
2023/10/11 02:29:25;;;;;;;11.85;6.95;;;5.90;99.90;;;;;;5043188;28;20203;-87
2023/10/11 02:31:55;;;;;;;15.18;8.55;;;5.90;99.90;;;;;;5060918;28;20213;-87
2023/10/11 02:34:23;;;;;;;13.93;7.57;;;5.90;99.90;;;;;;5071680;28;20726;-87
2023/10/11 02:37:10;;;;;;;14.52;7.97;;;5.90;99.90;;;;;;5064853;28;20268;-86
2023/10/11 02:39:43;;;;;;;14.15;7.55;;;5.90;99.90;;;;;;5063137;28;20944;-88
2023/10/11 02:42:10;;;;;;;13.93;7.97;;;5.80;99.90;;;;;;5057847;28;20349;-86
2023/10/11 02:44:41;;;;;;;15.40;7.68;;;5.80;99.90;;;;;;5060203;28;20723;-87
2023/10/11 02:47:09;;;;;;;15.15;8.88;;;5.80;99.90;;;;;;5058497;28;20227;-86
2023/10/11 02:49:38;;;;;;;14.07;7.50;;;5.80;99.90;;;;;;5061946;28;20192;-87
2023/10/11 02:52:08;;;;;;;11.75;7.47;;;5.80;99.90;;;;;;5068689;28;20185;-86
2023/10/11 02:54:39;;;;;;;15.20;8.25;;;5.80;99.90;;;;;;5055913;28;20211;-87
2023/10/11 02:57:09;;;;;;;11.48;6.68;;;5.80;99.90;;;;;;5069820;28;20269;-87
2023/10/11 02:59:37;;;;;;;14.20;7.65;;;5.80;99.90;;;;;;5042841;28;20189;-86
2023/10/11 03:02:07;;;;;;;12.57;7.18;;;5.80;99.90;;;;;;5051059;28;20292;-87
2023/10/11 03:04:40;;;;;;;12.85;7.50;;;5.80;99.90;;;;;;5056785;28;20211;-86
2023/10/11 03:07:21;;;;;;;16.52;8.02;;;5.80;99.90;;;;;;5058276;28;20197;-86
2023/10/11 03:09:54;;;;;;;15.05;8.68;;;5.80;99.90;;;;;;5063028;28;20227;-87
2023/10/11 03:12:38;;;;;;;14.48;8.00;;;5.80;99.90;;;;;;5060184;28;20262;-88
2023/10/11 03:15:08;;;;;;;11.88;7.20;;;5.80;99.90;;;;;;5068677;28;20220;-87
2023/10/11 03:17:41;;;;;;;14.32;8.23;;;5.80;99.90;;;;;;5048037;28;20209;-87
2023/10/11 03:22:53;;;;;;;12.38;7.40;;;5.80;99.90;;;;;;5068803;28;20189;-87
2023/10/11 03:25:21;;;;;;;12.63;7.63;;;5.80;99.90;;;;;;5060843;28;20185;-87
2023/10/11 03:27:49;;;;;;;15.65;8.15;;;5.80;99.90;;;;;;5064750;28;20189;-87
2023/10/11 03:30:21;;;;;;;14.10;7.97;;;5.70;99.90;;;;;;5046191;28;20719;-87
2023/10/11 03:32:49;;;;;;;13.25;8.10;;;5.70;99.90;;;;;;5071022;28;20266;-86
2023/10/11 03:35:18;;;;;;;16.35;7.95;;;5.70;99.90;;;;;;5066936;28;20192;-86
2023/10/11 03:37:58;;;;;;;14.38;8.38;;;5.70;99.90;;;;;;5039070;28;20743;-87
2023/10/11 03:40:34;;;;;;;12.38;8.43;;;5.70;99.90;;;;;;5067391;28;20201;-86
2023/10/11 03:43:16;;;;;;;13.18;8.18;;;5.70;99.90;;;;;;5043887;28;20284;-87
2023/10/11 03:45:49;;;;;;;12.50;8.02;;;5.70;99.90;;;;;;5054506;28;20189;-87
2023/10/11 03:48:29;;;;;;;15.15;7.93;;;5.70;99.90;;;;;;5039324;28;20216;-87
2023/10/11 03:50:57;;;;;;;15.70;9.15;;;5.70;99.90;;;;;;5039909;28;20717;-87
2023/10/11 03:53:24;;;;;;;16.95;10.07;;;5.70;99.90;;;;;;5059618;28;20216;-86
2023/10/11 03:55:53;;;;;;;15.88;9.15;;;5.70;99.90;;;;;;5067985;28;20526;-86
2023/10/11 03:58:33;;;;;;;14.80;8.77;;;5.70;99.90;;;;;;5044373;28;20224;-87
2023/10/11 04:03:41;;;;;;;16.52;8.98;;;5.70;99.90;;;;;;5074320;28;20954;-86
2023/10/11 04:06:19;;;;;;;15.32;8.90;;;5.70;99.90;;;;;;5070848;28;20193;-87
2023/10/11 04:09:02;;;;;;;18.52;8.95;;;5.70;99.90;;;;;;5053709;28;20221;-86
2023/10/11 04:17:14;;;;;;;18.75;10.10;;;5.70;99.90;;;;;;5055134;28;20193;-88
2023/10/11 04:19:43;;;;;;;15.82;9.43;;;5.70;99.90;;;;;;5066473;28;20184;-87
2023/10/11 04:22:16;;;;;;;18.02;9.07;;;5.70;99.90;;;;;;5065438;28;20573;-87
2023/10/11 04:24:48;;;;;;;15.57;9.90;;;5.70;99.90;;;;;;5049821;28;20582;-85
2023/10/11 04:27:45;;;;;;;16.48;10.00;;;5.70;99.90;;;;;;5063534;28;20189;-86
2023/10/11 04:30:17;;;;;;;15.02;9.63;;;5.70;99.90;;;;;;5066604;28;20768;-89
2023/10/11 04:32:48;;;;;;;16.70;9.43;;;5.70;99.90;;;;;;5064301;28;20181;-87
2023/10/11 04:38:01;;;;;;;15.50;10.48;;;5.70;99.90;;;;;;5058772;28;20184;-87
2023/10/11 04:43:04;;;;;;;15.38;9.93;;;5.70;99.90;;;;;;5059330;28;20197;-87
2023/10/11 04:45:44;;;;;;;17.02;10.30;;;5.70;99.90;;;;;;5052938;28;20173;-85
2023/10/11 04:48:18;;;;;;;16.85;10.10;;;5.70;99.90;;;;;;5062154;28;20181;-86
2023/10/11 04:50:50;;;;;;;16.10;9.77;;;5.70;99.90;;;;;;5058553;28;20181;-87
2023/10/11 04:53:18;;;;;;;15.88;9.60;;;5.70;99.90;;;;;;5043793;28;20187;-85
2023/10/11 04:55:59;;;;;;;17.27;9.85;;;5.70;99.90;;;;;;5055503;28;20180;-86
2023/10/11 04:58:42;;;;;;;15.68;10.18;;;5.80;99.90;;;;;;5057841;28;20763;-87
2023/10/11 05:01:11;;;;;;;15.68;9.85;;;5.80;99.90;;;;;;5061980;28;20208;-88
2023/10/11 05:03:39;;;;;;;16.42;9.80;;;5.80;99.90;;;;;;5054826;28;20254;-88
2023/10/11 05:06:20;;;;;;;16.30;10.35;;;5.80;99.90;;;;;;5062509;28;20199;-87
2023/10/11 05:09:04;;;;;;;17.17;10.70;;;5.80;99.90;;;;;;5060344;28;20201;-87
2023/10/11 05:11:36;;;;;;;18.20;11.23;;;5.80;99.90;;;;;;5053736;28;20185;-86
2023/10/11 05:16:50;;;;;;;17.80;10.45;;;5.80;99.90;;;;;;5053567;28;20193;-87
2023/10/11 05:19:20;;;;;;;16.73;10.73;;;5.80;99.90;;;;;;5058348;28;20197;-85
2023/10/11 05:21:53;;;;;;;18.65;10.70;;;5.80;99.90;;;;;;5058481;28;20201;-86
2023/10/11 05:32:41;;;;;;;18.15;10.57;;;5.80;99.90;;;;;;5066352;28;20185;-86
2023/10/11 05:51:48;;;;;;;19.40;11.25;;;5.90;99.90;;;;;;5056901;28;20218;-85
2023/10/11 05:54:16;;;;;;;17.67;11.13;;;6.00;99.90;;;;;;5058092;28;20199;-84
2023/10/11 05:56:47;;;;;;;21.92;11.85;;;6.00;99.90;;;;;;5061381;28;20189;-85
2023/10/11 05:59:15;;;;;;;19.52;12.02;;;6.00;99.90;;;;;;5056976;28;20563;-86
2023/10/11 06:01:46;;;;;;;18.52;9.95;;;6.00;99.90;;;;;;5057719;28;20191;-86
2023/10/11 06:04:16;;;;;;;18.90;11.80;;;6.00;99.90;;;;;;5066263;28;20266;-86
2023/10/11 06:06:47;;;;;;;20.10;12.05;;;6.10;99.90;;;;;;5048354;28;20185;-87
2023/10/11 06:09:17;;;;;;;17.25;11.35;;;6.10;99.90;;;;;;5042370;28;20198;-85
2023/10/11 06:11:49;;;;;;;20.65;11.20;;;6.10;99.90;;;;;;5050403;28;20188;-85
2023/10/11 06:14:18;;;;;;;17.90;10.82;;;6.10;99.90;;;;;;5057100;28;20654;-85
2023/10/11 06:16:56;;;;;;;16.95;10.35;;;6.20;99.90;;;;;;5051169;28;20187;-85
2023/10/11 06:19:26;;;;;;;19.70;11.15;;;6.10;99.90;;;;;;5036690;28;20635;-85
2023/10/11 06:21:59;;;;;;;17.50;10.65;;;6.20;99.90;;;;;;5062098;28;20300;-85
2023/10/11 06:24:33;;;;;;;18.08;10.77;;;6.20;99.90;;;;;;5057896;28;20217;-86
2023/10/11 06:29:45;;;;;;;19.55;10.82;;;6.20;99.90;;;;;;5058426;28;20220;-86
2023/10/11 06:32:13;;;;;;;15.68;9.52;;;6.20;99.90;;;;;;5047520;28;20235;-86
2023/10/11 06:34:47;;;;;;;18.92;10.27;;;6.20;99.90;;;;;;5063266;28;20566;-85
2023/10/11 06:37:19;;;;;;;18.80;10.95;;;6.20;99.90;;;;;;5059869;28;20674;-85
2023/10/11 06:42:21;;;;;;;20.85;10.63;;;6.30;99.90;;;;;;5052589;28;20221;-85
2023/10/11 06:44:58;;;;;;;15.75;9.80;;;6.50;99.90;;;;;;5054720;28;20216;-86
2023/10/11 06:47:33;;;;;;;20.00;10.57;;;6.40;99.90;;;;;;5061201;28;20587;-85
2023/10/11 06:50:14;;;;;;;16.75;10.02;;;6.40;99.90;;;;;;5068551;28;20223;-86
2023/10/11 06:52:46;;;;;;;19.08;10.07;;;6.40;99.90;;;;;;5067874;28;20670;-85
2023/10/11 06:55:22;;;;;;;20.00;9.77;;;6.40;99.90;;;;;;5064696;28;20196;-85
2023/10/11 06:57:56;;;;;;;17.13;10.13;;;6.40;99.90;;;;;;5061836;28;20238;-85
2023/10/11 07:00:27;;;;;;;20.25;11.10;;;6.40;99.90;;;;;;5056188;28;20193;-86
2023/10/11 07:03:07;;;;;;;17.30;9.65;;;6.40;99.90;;;;;;5058483;28;20246;-86
2023/10/11 07:05:46;;;;;;;17.10;8.85;;;6.40;99.90;;;;;;5062525;28;20204;-85
2023/10/11 07:08:18;;;;;;;16.80;9.98;;;6.50;99.90;;;;;;5053836;28;20268;-87
2023/10/11 07:13:54;;;;;;;14.88;9.07;;;6.60;99.90;;;;;;5060654;28;20181;-85
2023/10/11 07:16:30;;;;;;;13.05;8.40;;;6.60;99.90;;;;;;5059756;28;20189;-85
2023/10/11 07:18:58;;;;;;;13.85;8.30;;;6.70;99.90;;;;;;5057097;28;20675;-85
2023/10/11 07:21:41;;;;;;;19.50;8.60;;;6.70;99.90;;;;;;5053206;28;20181;-86
2023/10/11 07:27:08;;;;;;;14.48;8.35;;;6.80;99.90;;;;;;5062122;28;20211;-85
2023/10/11 07:29:47;;;;;;;16.73;9.13;;;6.80;99.90;;;;;;5069617;28;20726;-84
2023/10/11 07:32:18;;;;;;;17.20;9.45;;;6.80;99.90;;;;;;5062248;28;20192;-85
2023/10/11 07:34:48;;;;;;;17.50;8.63;;;6.80;99.90;;;;;;5062589;28;20687;-87
2023/10/11 07:37:18;;;;;;;18.63;8.77;;;6.80;99.90;;;;;;5063978;28;20185;-85
2023/10/11 07:39:47;;;;;;;16.05;9.32;;;6.70;99.90;;;;;;5055472;28;20658;-86
2023/10/11 07:42:25;;;;;;;18.80;10.20;;;6.80;99.90;;;;;;5063051;28;20710;-86
2023/10/11 07:44:53;;;;;;;18.05;9.82;;;6.80;99.90;;;;;;5063778;28;20197;-87
2023/10/11 07:47:25;;;;;;;16.10;9.98;;;6.80;99.90;;;;;;5053535;28;20181;-87
2023/10/11 07:49:54;;;;;;;19.85;10.15;;;6.80;99.90;;;;;;5063449;28;20181;-87
2023/10/11 07:52:22;;;;;;;20.13;10.77;;;6.80;99.90;;;;;;5059587;28;20212;-87
2023/10/11 07:54:52;;;;;;;21.77;12.00;;;6.80;99.90;;;;;;5058921;28;20235;-89
2023/10/11 07:57:21;;;;;;;23.10;11.48;;;6.90;99.90;;;;;;5064847;28;20189;-87
2023/10/11 07:59:51;;;;;;;22.67;11.40;;;6.90;99.90;;;;;;5069304;28;20195;-87
2023/10/11 08:02:29;;;;;;;20.73;11.65;;;6.80;99.90;;;;;;5059794;28;20234;-86
2023/10/11 08:04:58;;;;;;;24.80;12.82;;;6.80;99.90;;;;;;5068001;28;20608;-86
2023/10/11 08:07:26;;;;;;;23.67;13.30;;;6.80;99.90;;;;;;5056548;28;20650;-88
2023/10/11 08:09:55;;;;;;;21.05;13.10;;;6.80;99.90;;;;;;5054581;28;20280;-87
2023/10/11 08:12:24;;;;;;;26.48;13.60;;;6.90;99.90;;;;;;5059242;28;20936;-88
2023/10/11 08:14:56;;;;;;;27.20;13.88;;;6.90;99.90;;;;;;5047668;28;20200;-88
2023/10/11 08:17:29;;;;;;;23.60;12.85;;;6.90;99.90;;;;;;5065217;28;20193;-87
2023/10/11 08:19:58;;;;;;;22.92;13.07;;;6.90;99.90;;;;;;5058687;28;20643;-86
2023/10/11 08:22:27;;;;;;;24.25;12.93;;;6.90;99.90;;;;;;5059637;28;20188;-88
2023/10/11 08:24:59;;;;;;;27.40;13.25;;;6.90;99.90;;;;;;5059730;28;20209;-88
2023/10/11 08:30:09;;;;;;;28.50;15.48;;;6.90;99.90;;;;;;5066649;28;20185;-86
2023/10/11 08:32:42;;;;;;;28.40;16.58;;;6.90;99.90;;;;;;5055997;28;20192;-87
2023/10/11 08:35:31;;;;;;;26.10;15.80;;;6.90;99.90;;;;;;5056857;28;20663;-87
2023/10/11 08:38:06;;;;;;;28.33;14.70;;;6.90;99.90;;;;;;5043889;28;20677;-87
2023/10/11 08:40:37;;;;;;;27.65;14.55;;;6.90;99.90;;;;;;5070953;28;20188;-88
2023/10/11 08:43:07;;;;;;;31.75;16.88;;;6.90;99.90;;;;;;5066726;28;20184;-87
2023/10/11 08:46:05;;;;;;;30.83;17.73;;;6.90;99.90;;;;;;5070752;28;20192;-86
2023/10/11 08:48:38;;;;;;;30.13;14.93;;;6.90;99.90;;;;;;5052303;28;20601;-88
2023/10/11 08:51:12;;;;;;;28.65;15.13;;;6.90;99.90;;;;;;5059202;28;20292;-88
2023/10/11 08:53:54;;;;;;;27.48;15.70;;;6.90;99.90;;;;;;5069637;28;20206;-89
2023/10/11 08:56:25;;;;;;;30.58;15.27;;;6.90;99.90;;;;;;5070342;28;20204;-86
2023/10/11 08:58:53;;;;;;;29.08;14.77;;;6.90;99.90;;;;;;5046030;28;20201;-91
2023/10/11 09:01:24;;;;;;;28.60;15.77;;;6.80;99.90;;;;;;5068186;28;20276;-88
2023/10/11 09:04:16;;;;;;;30.02;17.17;;;6.90;99.90;;;;;;5057957;28;20197;-85
2023/10/11 09:06:45;;;;;;;30.58;17.08;;;6.90;99.90;;;;;;5066974;28;20185;-85
2023/10/11 09:09:45;;;;;;;35.42;18.15;;;6.90;99.90;;;;;;5066686;28;20223;-88
2023/10/11 09:12:26;;;;;;;33.28;18.40;;;6.90;99.90;;;;;;5055538;28;20184;-87
2023/10/11 09:15:04;;;;;;;32.53;18.17;;;6.90;99.90;;;;;;5049260;28;20208;-86
2023/10/11 09:17:39;;;;;;;31.58;19.45;;;6.80;99.90;;;;;;5059999;28;20189;-87
2023/10/11 09:20:23;;;;;;;31.27;18.40;;;6.90;99.90;;;;;;5062773;28;20193;-87
2023/10/11 09:22:55;;;;;;;34.50;19.52;;;6.90;99.90;;;;;;5058769;28;20279;-87
2023/10/11 09:25:33;;;;;;;33.55;16.75;;;6.90;99.90;;;;;;5059186;28;20196;-87
2023/10/11 09:28:17;;;;;;;31.30;16.95;;;6.90;99.90;;;;;;5055667;28;20616;-87
2023/10/11 09:31:20;;;;;;;35.05;18.98;;;6.90;99.90;;;;;;5064388;28;20679;-87
2023/10/11 09:34:07;;;;;;;35.55;19.67;;;6.90;99.90;;;;;;5056714;28;20280;-88
2023/10/11 09:36:40;;;;;;;38.25;23.23;;;6.90;99.90;;;;;;5057510;28;20280;-86
2023/10/11 09:39:15;;;;;;;37.92;21.52;;;6.90;99.90;;;;;;5058249;28;20188;-85
2023/10/11 09:41:45;;;;;;;36.10;20.02;;;6.90;99.90;;;;;;5063766;28;20605;-86
2023/10/11 09:44:14;;;;;;;37.85;21.30;;;6.90;99.90;;;;;;5059819;28;20276;-85
2023/10/11 09:46:43;;;;;;;38.70;19.98;;;6.90;99.90;;;;;;5058436;28;20924;-87
2023/10/11 09:49:12;;;;;;;39.08;22.33;;;6.90;99.90;;;;;;5052029;28;20193;-88
2023/10/11 09:51:46;;;;;;;30.95;18.45;;;7.00;99.90;;;;;;5050109;28;20192;-86
2023/10/11 09:54:21;;;;;;;36.58;20.98;;;7.00;99.90;;;;;;5040957;28;20797;-87
2023/10/11 09:57:42;;;;;;;37.17;22.50;;;7.00;99.90;;;;;;5059284;28;20698;-87
2023/10/11 10:00:26;;;;;;;42.10;22.85;;;7.00;99.90;;;;;;5029575;28;20279;-87
2023/10/11 10:02:57;;;;;;;36.10;18.50;;;7.10;99.90;;;;;;5055529;28;20193;-86
2023/10/11 10:05:47;;;;;;;41.70;23.00;;;7.10;99.90;;;;;;5063389;28;20231;-87
2023/10/11 10:08:19;;;;;;;37.72;18.98;;;7.10;99.90;;;;;;5037926;28;20221;-88
2023/10/11 10:10:56;;;;;;;34.33;19.40;;;7.10;99.90;;;;;;5048362;28;20213;-87
2023/10/11 10:13:37;;;;;;;36.42;18.60;;;7.20;99.90;;;;;;5043113;28;20582;-87
2023/10/11 10:16:13;;;;;;;38.63;20.88;;;7.20;99.90;;;;;;5067649;28;20192;-87
2023/10/11 10:19:23;;;;;;;36.00;20.50;;;7.20;99.90;;;;;;5061666;28;20193;-89
2023/10/11 10:22:16;;;;;;;32.85;17.08;;;7.20;99.90;;;;;;5065575;28;20204;-89
2023/10/11 10:24:54;;;;;;;30.27;16.13;;;7.30;99.90;;;;;;5039657;28;20193;-87
2023/10/11 10:27:34;;;;;;;34.05;17.88;;;7.30;99.90;;;;;;5078546;28;20204;-88
2023/10/11 10:30:10;;;;;;;31.77;18.23;;;7.30;99.90;;;;;;5068658;28;20196;-87
2023/10/11 10:33:19;;;;;;;26.52;15.27;;;7.30;99.90;;;;;;5054114;28;20332;-88
2023/10/11 10:35:48;;;;;;;28.38;14.88;;;7.40;99.90;;;;;;5068145;28;20197;-86
2023/10/11 10:38:21;;;;;;;26.15;14.00;;;7.40;99.90;;;;;;5060084;28;20195;-86
2023/10/11 10:41:27;;;;;;;23.88;12.75;;;7.40;99.90;;;;;;5061905;28;20342;-86
2023/10/11 10:44:12;;;;;;;25.35;12.40;;;7.50;99.90;;;;;;5045407;28;20228;-84
2023/10/11 10:46:59;;;;;;;24.17;11.80;;;7.50;99.90;;;;;;5064096;28;20228;-87
2023/10/11 10:49:41;;;;;;;25.42;11.93;;;7.50;99.90;;;;;;5062804;28;20178;-86
2023/10/11 10:52:15;;;;;;;22.80;10.02;;;7.50;99.90;;;;;;5054137;28;20580;-87
2023/10/11 10:55:03;;;;;;;21.15;10.35;;;7.50;99.90;;;;;;5062168;28;20247;-85
2023/10/11 10:57:39;;;;;;;20.98;10.32;;;7.50;99.90;;;;;;5053234;28;20188;-86
2023/10/11 11:00:22;;;;;;;23.60;11.75;;;7.60;99.90;;;;;;5062379;28;20185;-87
2023/10/11 11:02:56;;;;;;;19.08;9.02;;;7.60;99.90;;;;;;5068015;28;20188;-87
2023/10/11 11:05:39;;;;;;;20.88;10.20;;;7.60;99.90;;;;;;5052952;28;20192;-87
2023/10/11 11:08:19;;;;;;;20.92;9.00;;;7.60;99.90;;;;;;5066447;28;20694;-85
2023/10/11 11:11:19;;;;;;;17.02;8.70;;;7.70;99.90;;;;;;5060417;28;20192;-87
2023/10/11 11:13:52;;;;;;;18.75;9.13;;;7.70;99.90;;;;;;5042147;28;20289;-86
2023/10/11 11:16:29;;;;;;;17.73;8.50;;;7.70;99.90;;;;;;5048247;28;20651;-87
2023/10/11 11:19:25;;;;;;;15.20;8.07;;;7.70;99.90;;;;;;5036326;28;20311;-87
2023/10/11 11:22:15;;;;;;;14.63;8.10;;;7.80;99.90;;;;;;5052632;28;20729;-86
2023/10/11 11:24:43;;;;;;;12.93;7.60;;;7.80;99.90;;;;;;5060141;28;20197;-87
2023/10/11 11:27:30;;;;;;;13.85;7.10;;;7.80;99.90;;;;;;5064439;28;20396;-86
2023/10/11 11:30:15;;;;;;;16.85;8.50;;;7.80;99.90;;;;;;5064426;28;20187;-87
2023/10/11 11:32:45;;;;;;;17.88;7.68;;;7.90;99.90;;;;;;5041936;28;20616;-86
2023/10/11 11:35:28;;;;;;;16.27;8.27;;;7.90;99.90;;;;;;5068973;28;20185;-86
2023/10/11 11:38:03;;;;;;;12.80;6.18;;;7.90;99.90;;;;;;5067824;28;20188;-84
2023/10/11 11:40:36;;;;;;;17.55;7.97;;;7.90;99.90;;;;;;5062849;28;20207;-86
2023/10/11 11:43:04;;;;;;;14.20;7.30;;;7.90;99.90;;;;;;5059222;28;20620;-85
2023/10/11 11:45:35;;;;;;;17.27;8.55;;;7.90;99.90;;;;;;5057140;28;20223;-86
2023/10/11 11:48:06;;;;;;;16.75;8.50;;;7.90;99.90;;;;;;5068982;28;20189;-87
2023/10/11 11:50:37;;;;;;;16.45;8.93;;;8.00;99.90;;;;;;5051958;28;20185;-86
2023/10/11 11:53:06;;;;;;;14.65;7.70;;;8.00;99.90;;;;;;5056728;28;20239;-85
2023/10/11 11:55:36;;;;;;;18.50;8.27;;;8.00;99.90;;;;;;5068871;28;20186;-85
2023/10/11 11:58:10;;;;;;;19.45;11.23;;;8.00;99.90;;;;;;5049777;28;20193;-87
2023/10/11 12:00:45;;;;;;;20.88;10.18;;;8.10;99.90;;;;;;5063974;28;20658;-85
2023/10/11 12:03:17;;;;;;;19.88;9.40;;;8.10;99.90;;;;;;5066152;28;20257;-86
2023/10/11 12:05:45;;;;;;;14.65;6.95;;;8.10;99.90;;;;;;5063601;28;20205;-83
2023/10/11 12:08:18;;;;;;;17.15;8.73;;;8.10;99.90;;;;;;5068926;28;20220;-85
2023/10/11 12:10:49;;;;;;;15.23;8.80;;;8.10;99.90;;;;;;5064159;28;20188;-87
2023/10/11 12:13:25;;;;;;;14.80;7.30;;;8.20;99.90;;;;;;5046411;28;20189;-86
2023/10/11 12:15:56;;;;;;;14.82;7.70;;;8.20;99.90;;;;;;5049173;28;20605;-85
2023/10/11 12:18:44;;;;;;;13.00;6.15;;;8.20;99.90;;;;;;5057322;28;20282;-85
2023/10/11 12:21:15;;;;;;;13.45;6.93;;;8.20;99.90;;;;;;5063425;28;20212;-86
2023/10/11 12:23:46;;;;;;;13.13;7.72;;;8.30;99.90;;;;;;5061006;28;20193;-86
2023/10/11 12:26:18;;;;;;;16.08;8.25;;;8.30;99.90;;;;;;5065303;28;20342;-84
2023/10/11 12:28:47;;;;;;;18.13;8.77;;;8.40;99.90;;;;;;5060871;28;20275;-84
2023/10/11 12:31:18;;;;;;;16.02;8.18;;;8.50;99.90;;;;;;5070692;28;20191;-85
2023/10/11 12:33:47;;;;;;;17.45;8.80;;;8.40;99.90;;;;;;5063159;28;20263;-85
2023/10/11 12:36:19;;;;;;;15.80;9.15;;;8.50;99.90;;;;;;5059761;28;20193;-84
2023/10/11 12:38:50;;;;;;;17.90;9.70;;;8.50;99.90;;;;;;5058983;28;20659;-84
2023/10/11 12:41:17;;;;;;;19.35;10.30;;;8.50;99.90;;;;;;5063033;28;20228;-86
2023/10/11 12:43:49;;;;;;;20.10;10.20;;;8.60;99.90;;;;;;5054117;28;20196;-83
2023/10/11 12:46:18;;;;;;;21.98;11.75;;;8.60;99.90;;;;;;5050199;28;20690;-84
2023/10/11 12:48:54;;;;;;;23.65;11.52;;;8.60;99.90;;;;;;5063524;28;20235;-84
2023/10/11 12:51:25;;;;;;;21.92;11.30;;;8.70;99.90;;;;;;5060964;28;20666;-85
2023/10/11 12:53:57;;;;;;;24.23;11.70;;;8.70;99.90;;;;;;5064178;28;20177;-86
2023/10/11 12:56:26;;;;;;;26.50;12.68;;;8.70;99.90;;;;;;5064497;28;20189;-85
2023/10/11 12:58:54;;;;;;;26.17;12.27;;;8.70;99.90;;;;;;5059917;28;20185;-85
2023/10/11 13:01:39;;;;;;;30.17;16.83;;;8.80;99.90;;;;;;5059556;28;20740;-85
2023/10/11 13:04:10;;;;;;;23.48;12.25;;;8.70;99.90;;;;;;5056988;28;20184;-84
2023/10/11 13:06:40;;;;;;;27.27;13.95;;;8.80;99.90;;;;;;5062184;28;20210;-86
2023/10/11 13:09:15;;;;;;;28.08;14.80;;;8.80;99.90;;;;;;5066363;28;20625;-87
2023/10/11 13:11:45;;;;;;;42.00;19.52;;;8.80;99.90;;;;;;5054790;28;20667;-85
2023/10/11 13:14:20;;;;;;;34.70;16.77;;;8.90;99.90;;;;;;5054153;28;20188;-85
2023/10/11 13:16:54;;;;;;;39.42;20.90;;;8.90;99.90;;;;;;5058709;28;20189;-86
2023/10/11 13:19:27;;;;;;;43.70;20.98;;;9.00;99.90;;;;;;5067630;28;20192;-87
2023/10/11 13:21:56;;;;;;;48.05;23.70;;;9.00;99.90;;;;;;5057538;28;20197;-84
2023/10/11 13:24:26;;;;;;;45.13;22.40;;;9.00;99.90;;;;;;5055709;28;20193;-85
2023/10/11 13:26:55;;;;;;;56.97;28.50;;;9.00;99.90;;;;;;5064635;28;20638;-85
2023/10/11 13:29:24;;;;;;;58.47;30.10;;;9.10;99.90;;;;;;5051930;28;20666;-84
2023/10/11 13:31:56;;;;;;;60.92;28.70;;;9.10;99.90;;;;;;5057806;28;20204;-86
2023/10/11 13:34:28;;;;;;;52.25;27.05;;;9.10;99.90;;;;;;5060070;28;20244;-85
2023/10/11 13:37:00;;;;;;;65.28;32.20;;;9.10;99.90;;;;;;5057683;28;20197;-85
2023/10/11 13:39:31;;;;;;;69.53;34.15;;;9.20;99.90;;;;;;5056759;28;20184;-85
2023/10/11 13:42:09;;;;;;;54.92;28.08;;;9.20;99.90;;;;;;5052463;28;20232;-85
2023/10/11 13:44:38;;;;;;;62.92;34.03;;;9.20;99.90;;;;;;5062222;28;20558;-86
2023/10/11 13:47:05;;;;;;;58.03;32.00;;;9.20;99.90;;;;;;5058691;28;20219;-85
2023/10/11 13:49:36;;;;;;;71.63;37.05;;;9.20;99.90;;;;;;5059187;28;20269;-86
2023/10/11 13:52:06;;;;;;;68.82;36.40;;;9.20;99.90;;;;;;5064294;28;20562;-84
2023/10/11 13:57:18;;;;;;;76.32;35.40;;;9.30;99.90;;;;;;5067263;28;20216;-86
2023/10/11 13:59:47;;;;;;;63.78;33.53;;;9.30;99.90;;;;;;5060336;28;20192;-85
2023/10/11 14:02:35;;;;;;;63.50;34.13;;;9.30;99.90;;;;;;5073250;28;20269;-85
2023/10/11 14:07:49;;;;;;;66.20;36.33;;;9.30;99.90;;;;;;5066875;28;20278;-85
2023/10/11 14:10:28;;;;;;;59.35;33.15;;;9.40;99.90;;;;;;5068599;28;20238;-85
2023/10/11 14:13:07;;;;;;;72.88;37.30;;;9.30;99.90;;;;;;5069823;28;20199;-85
2023/10/11 14:15:37;;;;;;;73.53;37.65;;;9.30;99.90;;;;;;5055689;28;20181;-85
2023/10/11 14:18:15;;;;;;;77.65;44.85;;;9.40;99.90;;;;;;5061754;28;20275;-85
2023/10/11 14:20:49;;;;;;;68.40;37.70;;;9.40;99.90;;;;;;5061298;28;20216;-84
2023/10/11 14:23:17;;;;;;;81.20;38.83;;;9.50;99.90;;;;;;5067935;28;20324;-85